createdAt,value
2023-04-30T00:01:15.756Z,23.90
2023-04-30T00:03:46.975Z,25.45
2023-04-30T00:06:17.897Z,22.63
2023-04-30T00:08:48.789Z,25.55
2023-04-30T00:11:19.878Z,23.73
2023-04-30T00:13:53.687Z,23.73
2023-04-30T00:16:24.564Z,24.33
2023-04-30T00:18:55.424Z,25.63
2023-04-30T00:21:26.557Z,24.80
2023-04-30T00:23:57.736Z,26.52
2023-04-30T00:26:28.542Z,23.80
2023-04-30T00:29:02.092Z,23.98
2023-04-30T00:31:32.885Z,22.55
2023-04-30T00:34:03.886Z,25.10
2023-04-30T00:36:34.973Z,26.40
2023-04-30T00:39:06.416Z,23.20
2023-04-30T00:41:38.849Z,25.77
2023-04-30T00:44:12.382Z,25.52
2023-04-30T00:46:43.321Z,27.33
2023-04-30T00:49:14.256Z,26.27
2023-04-30T00:51:45.646Z,25.90
2023-04-30T00:54:16.710Z,25.23
2023-04-30T00:56:47.716Z,26.20
2023-04-30T00:59:21.576Z,25.10
2023-04-30T01:01:52.459Z,26.55
2023-04-30T01:04:23.743Z,25.58
2023-04-30T01:06:54.727Z,24.77
2023-04-30T01:09:26.343Z,24.52
2023-04-30T01:12:08.937Z,26.05
2023-04-30T01:14:56.594Z,25.52
2023-04-30T01:17:35.347Z,22.00
2023-04-30T01:20:07.684Z,23.67
2023-04-30T01:22:54.117Z,23.83
2023-04-30T01:25:39.420Z,21.33
2023-04-30T01:28:16.801Z,26.17
2023-04-30T01:30:48.430Z,23.98
2023-04-30T01:33:19.776Z,23.05
2023-04-30T01:36:13.850Z,22.65
2023-04-30T01:39:07.198Z,21.52
2023-04-30T01:41:43.576Z,22.83
2023-04-30T01:44:34.868Z,25.23
2023-04-30T01:47:10.867Z,22.50
2023-04-30T01:49:54.485Z,27.45
2023-04-30T01:52:34.843Z,25.45
2023-04-30T01:55:12.057Z,22.55
2023-04-30T01:57:47.232Z,21.42
2023-04-30T02:00:20.955Z,23.73
2023-04-30T02:02:51.930Z,23.88
2023-04-30T02:05:22.987Z,23.95
2023-04-30T02:07:55.448Z,22.70
2023-04-30T02:10:29.768Z,23.33
2023-04-30T02:13:00.740Z,28.20
2023-04-30T02:15:34.155Z,20.25
2023-04-30T02:18:04.960Z,25.08
2023-04-30T02:20:35.900Z,23.65
2023-04-30T02:23:06.796Z,21.10
2023-04-30T02:25:39.009Z,23.80
2023-04-30T02:28:10.277Z,23.13
2023-04-30T02:30:43.676Z,21.02
2023-04-30T02:33:14.631Z,22.20
2023-04-30T02:35:46.661Z,21.63
2023-04-30T02:38:17.645Z,21.00
2023-04-30T02:40:48.622Z,21.80
2023-04-30T02:43:19.613Z,21.67
2023-04-30T02:45:53.533Z,20.75
2023-04-30T02:48:24.431Z,24.77
2023-04-30T02:50:55.346Z,19.65
2023-04-30T02:53:26.281Z,20.25
2023-04-30T02:55:57.159Z,22.80
2023-04-30T02:58:28.188Z,20.73
2023-04-30T03:01:02.644Z,19.50
2023-04-30T03:03:34.093Z,19.00
2023-04-30T03:06:05.174Z,19.45
2023-04-30T03:08:36.172Z,23.65
2023-04-30T03:11:07.002Z,20.67
2023-04-30T03:13:38.011Z,21.85
2023-04-30T03:16:11.665Z,19.40
2023-04-30T03:18:42.626Z,19.15
2023-04-30T03:21:13.510Z,18.98
2023-04-30T03:23:44.361Z,15.95
2023-04-30T03:26:15.285Z,15.73
2023-04-30T03:28:46.140Z,16.10
2023-04-30T03:31:19.727Z,15.07
2023-04-30T03:33:50.680Z,16.75
2023-04-30T03:36:22.682Z,14.70
2023-04-30T03:38:53.510Z,14.90
2023-04-30T03:41:24.557Z,15.23
2023-04-30T03:43:55.628Z,17.17
2023-04-30T03:46:29.394Z,17.23
2023-04-30T03:49:00.234Z,17.05
2023-04-30T03:51:31.524Z,17.70
2023-04-30T03:54:02.364Z,16.10
2023-04-30T03:56:33.224Z,16.88
2023-04-30T03:59:04.889Z,16.58
2023-04-30T04:01:39.440Z,17.13
2023-04-30T04:04:10.854Z,18.63
2023-04-30T04:06:41.874Z,17.60
2023-04-30T04:09:13.092Z,16.42
2023-04-30T04:11:46.035Z,16.17
2023-04-30T04:14:16.960Z,15.93
2023-04-30T04:16:51.168Z,18.13
2023-04-30T04:19:22.741Z,18.35
2023-04-30T04:21:54.206Z,17.08
2023-04-30T04:24:25.364Z,16.55
2023-04-30T04:26:56.603Z,16.73
2023-04-30T04:29:27.635Z,18.33
2023-04-30T04:32:03.147Z,19.08
2023-04-30T04:34:35.235Z,17.75
2023-04-30T04:37:06.249Z,24.63
2023-04-30T04:39:37.685Z,20.90
2023-04-30T04:42:08.921Z,20.48
2023-04-30T04:44:39.750Z,20.80
2023-04-30T04:47:13.299Z,20.83
2023-04-30T04:49:44.073Z,22.08
2023-04-30T04:52:15.021Z,20.00
2023-04-30T04:54:45.868Z,19.58
2023-04-30T04:57:16.685Z,19.63
2023-04-30T04:59:47.500Z,21.15
2023-04-30T05:02:21.595Z,21.45
2023-04-30T05:04:53.834Z,19.23
2023-04-30T05:07:24.662Z,20.25
2023-04-30T05:09:55.965Z,19.15
2023-04-30T05:12:27.088Z,18.33
2023-04-30T05:14:57.926Z,21.75
2023-04-30T05:17:31.456Z,20.48
2023-04-30T05:20:02.324Z,22.10
2023-04-30T05:22:33.409Z,20.00
2023-04-30T05:25:04.490Z,18.83
2023-04-30T05:27:36.425Z,23.95
2023-04-30T05:30:07.778Z,19.33
2023-04-30T05:32:41.682Z,22.40
2023-04-30T05:35:13.332Z,25.73
2023-04-30T05:37:44.157Z,20.27
2023-04-30T05:40:16.450Z,20.20
2023-04-30T05:42:47.415Z,22.05
2023-04-30T05:45:18.265Z,23.15
2023-04-30T05:47:51.877Z,21.30
2023-04-30T05:50:22.815Z,22.55
2023-04-30T05:52:53.710Z,21.88
2023-04-30T05:55:24.625Z,21.67
2023-04-30T05:57:55.465Z,22.85
2023-04-30T06:00:26.562Z,21.60
2023-04-30T06:03:00.156Z,20.92
2023-04-30T06:05:31.284Z,22.20
2023-04-30T06:08:02.252Z,23.48
2023-04-30T06:10:33.491Z,24.70
2023-04-30T06:13:05.078Z,22.20
2023-04-30T06:15:36.378Z,24.27
2023-04-30T06:18:10.018Z,23.55
2023-04-30T06:20:41.600Z,27.10
2023-04-30T06:23:13.310Z,27.25
2023-04-30T06:25:45.289Z,23.63
2023-04-30T06:28:16.613Z,23.30
2023-04-30T06:30:47.673Z,21.38
2023-04-30T06:33:21.228Z,26.00
2023-04-30T06:35:55.684Z,22.92
2023-04-30T06:38:26.624Z,25.98
2023-04-30T06:40:57.735Z,22.33
2023-04-30T06:43:31.800Z,24.67
2023-04-30T06:46:04.155Z,24.33
2023-04-30T06:48:37.589Z,28.15
2023-04-30T06:51:10.492Z,26.95
2023-04-30T06:53:41.874Z,28.73
2023-04-30T06:56:12.772Z,25.13
2023-04-30T06:58:43.636Z,24.75
2023-04-30T07:01:14.624Z,24.25
2023-04-30T07:03:48.236Z,23.98
2023-04-30T07:06:19.204Z,25.27
2023-04-30T07:08:50.147Z,25.40
2023-04-30T07:11:20.983Z,23.88
2023-04-30T07:13:51.829Z,22.90
2023-04-30T07:16:22.724Z,24.25
2023-04-30T07:18:56.224Z,23.10
2023-04-30T07:21:28.106Z,25.85
2023-04-30T07:23:59.008Z,24.35
2023-04-30T07:26:29.892Z,25.38
2023-04-30T07:29:00.769Z,25.67
2023-04-30T07:31:31.716Z,23.63
2023-04-30T07:34:05.296Z,21.75
2023-04-30T07:36:36.167Z,24.20
2023-04-30T07:39:08.489Z,27.13
2023-04-30T07:41:39.367Z,24.90
2023-04-30T07:44:11.972Z,23.88
2023-04-30T07:46:43.183Z,23.70
2023-04-30T07:49:16.787Z,23.15
2023-04-30T07:51:47.636Z,25.48
2023-04-30T07:54:18.495Z,26.23
2023-04-30T07:56:49.410Z,22.73
2023-04-30T07:59:21.711Z,20.83
2023-04-30T08:01:52.735Z,25.90
2023-04-30T08:04:26.321Z,21.23
2023-04-30T08:06:57.236Z,24.25
2023-04-30T08:09:28.156Z,23.95
2023-04-30T08:11:58.978Z,27.40
2023-04-30T08:14:29.865Z,24.67
2023-04-30T08:17:01.368Z,24.58
2023-04-30T08:19:35.091Z,28.15
2023-04-30T08:22:06.210Z,23.50
2023-04-30T08:24:37.093Z,26.02
2023-04-30T08:27:08.200Z,22.88
2023-04-30T08:29:39.146Z,29.23
2023-04-30T08:32:10.454Z,26.90
2023-04-30T08:34:44.498Z,25.80
2023-04-30T08:37:16.236Z,28.73
2023-04-30T08:39:47.123Z,27.98
2023-04-30T08:42:18.575Z,26.45
2023-04-30T08:44:49.547Z,29.45
2023-04-30T08:47:21.623Z,26.05
2023-04-30T08:49:56.546Z,26.75
2023-04-30T08:52:29.861Z,25.95
2023-04-30T08:55:02.594Z,24.58
2023-04-30T08:57:34.518Z,28.13
2023-04-30T09:00:06.629Z,27.17
2023-04-30T09:02:38.922Z,25.08
2023-04-30T09:05:15.908Z,26.02
2023-04-30T09:08:02.496Z,23.27
2023-04-30T09:10:37.124Z,23.55
2023-04-30T09:13:12.273Z,27.27
2023-04-30T09:15:46.098Z,16.45
2023-04-30T09:18:18.739Z,24.25
2023-04-30T09:21:03.879Z,21.02
2023-04-30T09:23:34.843Z,22.90
2023-04-30T09:26:05.735Z,20.85
2023-04-30T09:28:37.170Z,22.63
2023-04-30T09:31:23.297Z,23.77
2023-04-30T09:33:55.253Z,20.23
2023-04-30T09:36:28.863Z,19.85
2023-04-30T09:39:00.464Z,22.40
2023-04-30T09:41:32.247Z,19.45
2023-04-30T09:44:03.130Z,21.15
2023-04-30T09:46:35.113Z,20.90
2023-04-30T09:49:07.615Z,22.45
2023-04-30T09:51:57.664Z,19.17
2023-04-30T09:54:30.375Z,20.63
2023-04-30T09:57:02.563Z,21.42
2023-04-30T09:59:35.683Z,22.27
2023-04-30T10:02:08.166Z,19.40
2023-04-30T10:04:40.716Z,17.77
2023-04-30T10:07:20.816Z,18.65
2023-04-30T10:09:55.008Z,18.98
2023-04-30T10:12:30.525Z,22.05
2023-04-30T10:15:09.642Z,21.02
2023-04-30T10:17:44.539Z,19.30
2023-04-30T10:20:17.151Z,19.95
2023-04-30T10:22:52.264Z,18.75
2023-04-30T10:25:23.351Z,17.85
2023-04-30T10:27:54.891Z,11.50
2023-04-30T10:30:27.262Z,16.30
2023-04-30T10:33:08.820Z,17.48
2023-04-30T10:35:48.382Z,18.83
2023-04-30T10:38:26.296Z,18.20
2023-04-30T10:41:00.160Z,20.70
2023-04-30T10:43:33.657Z,16.90
2023-04-30T10:46:05.309Z,19.00
2023-04-30T10:48:38.259Z,17.38
2023-04-30T10:51:11.926Z,18.02
2023-04-30T10:53:47.677Z,18.92
2023-04-30T10:56:33.356Z,18.55
2023-04-30T10:59:05.555Z,18.08
2023-04-30T11:02:00.942Z,17.10
2023-04-30T11:04:34.196Z,19.63
2023-04-30T11:07:12.156Z,20.05
2023-04-30T11:09:52.252Z,19.23
2023-04-30T11:12:28.856Z,18.92
2023-04-30T11:15:09.162Z,17.77
2023-04-30T11:17:41.720Z,21.58
2023-04-30T11:20:16.574Z,19.90
2023-04-30T11:22:48.835Z,11.98
2023-04-30T11:25:26.497Z,22.67
2023-04-30T11:28:01.219Z,26.25
2023-04-30T11:30:33.181Z,20.00
2023-04-30T11:33:04.728Z,17.08
2023-04-30T11:35:36.872Z,21.58
2023-04-30T11:38:09.007Z,20.67
2023-04-30T11:40:43.761Z,22.63
2023-04-30T11:43:25.814Z,24.20
2023-04-30T11:46:11.454Z,22.88
2023-04-30T11:48:44.035Z,20.67
2023-04-30T11:51:19.280Z,22.45
2023-04-30T11:53:51.919Z,16.17
2023-04-30T11:56:28.069Z,20.80
2023-04-30T11:58:59.181Z,20.13
2023-04-30T12:01:31.942Z,20.92
2023-04-30T12:04:04.453Z,13.43
2023-04-30T12:06:35.989Z,21.58
2023-04-30T12:09:10.311Z,17.27
2023-04-30T12:11:43.977Z,11.13
2023-04-30T12:14:15.617Z,17.75
2023-04-30T12:17:09.510Z,17.67
2023-04-30T12:19:46.519Z,18.38
2023-04-30T12:22:25.306Z,15.30
2023-04-30T12:24:58.809Z,14.07
2023-04-30T12:27:32.336Z,9.25
2023-04-30T12:30:09.194Z,13.25
2023-04-30T12:35:39.722Z,10.77
2023-04-30T12:38:11.252Z,12.10
2023-04-30T12:40:42.257Z,8.35
2023-04-30T12:43:19.757Z,10.02
2023-04-30T12:45:52.720Z,8.25
2023-04-30T12:48:25.470Z,8.95
2023-04-30T12:50:58.218Z,5.20
2023-04-30T12:53:29.365Z,8.30
2023-04-30T12:56:15.694Z,7.72
2023-04-30T12:58:51.470Z,7.80
2023-04-30T13:01:24.742Z,10.57
2023-04-30T13:03:56.512Z,7.78
2023-04-30T13:06:27.996Z,7.03
2023-04-30T13:08:59.516Z,6.47
2023-04-30T13:11:30.430Z,8.52
2023-04-30T13:14:04.292Z,7.88
2023-04-30T13:16:38.057Z,8.50
2023-04-30T13:19:10.264Z,8.70
2023-04-30T13:21:41.418Z,6.60
2023-04-30T13:24:12.327Z,10.00
2023-04-30T13:26:43.567Z,7.00
2023-04-30T13:29:17.081Z,9.32
2023-04-30T13:31:49.153Z,10.45
2023-04-30T13:34:20.256Z,9.00
2023-04-30T13:36:52.400Z,5.70
2023-04-30T13:39:23.670Z,6.55
2023-04-30T13:41:55.288Z,6.97
2023-04-30T13:44:29.077Z,8.07
2023-04-30T13:47:00.047Z,6.85
2023-04-30T13:49:31.255Z,5.47
2023-04-30T13:52:02.424Z,5.78
2023-04-30T13:54:33.357Z,7.13
2023-04-30T13:57:04.681Z,8.35
2023-04-30T13:59:38.880Z,6.32
2023-04-30T14:02:11.361Z,6.10
2023-04-30T14:04:51.471Z,6.93
2023-04-30T14:07:29.445Z,6.30
2023-04-30T14:10:01.041Z,8.38
2023-04-30T14:12:33.506Z,7.35
2023-04-30T14:15:09.355Z,8.10
2023-04-30T14:17:41.464Z,8.20
2023-04-30T14:20:14.405Z,11.95
2023-04-30T14:22:46.165Z,12.18
2023-04-30T14:25:17.673Z,7.43
2023-04-30T14:27:53.995Z,7.82
2023-04-30T14:30:30.299Z,9.80
2023-04-30T14:33:03.038Z,7.80
2023-04-30T14:35:36.069Z,7.10
2023-04-30T14:38:08.247Z,15.23
2023-04-30T14:40:40.849Z,8.10
2023-04-30T14:43:12.737Z,7.47
2023-04-30T14:45:46.519Z,13.95
2023-04-30T14:48:17.369Z,12.38
2023-04-30T14:50:48.419Z,10.48
2023-04-30T14:53:20.155Z,13.75
2023-04-30T15:04:23.014Z,10.55
2023-04-30T15:06:54.395Z,8.60
2023-04-30T15:09:25.325Z,9.13
2023-04-30T15:12:08.782Z,12.07
2023-04-30T15:14:44.432Z,7.35
2023-04-30T15:17:21.509Z,10.15
2023-04-30T15:19:55.464Z,7.55
2023-04-30T15:22:33.723Z,7.05
2023-04-30T15:25:07.780Z,8.80
2023-04-30T15:28:04.094Z,6.93
2023-04-30T15:30:35.274Z,4.22
2023-04-30T15:33:06.147Z,5.85
2023-04-30T15:35:40.917Z,3.83
2023-04-30T15:38:12.282Z,5.20
2023-04-30T15:40:43.356Z,5.32
2023-04-30T15:43:14.383Z,6.40
2023-04-30T15:45:46.382Z,8.75
2023-04-30T15:48:17.410Z,8.13
2023-04-30T15:50:50.829Z,8.98
2023-04-30T15:53:22.070Z,6.03
2023-04-30T15:55:53.692Z,8.18
2023-04-30T15:58:30.703Z,5.82
2023-04-30T16:01:02.345Z,5.50
2023-04-30T16:03:34.210Z,11.07
2023-04-30T16:06:08.133Z,6.85
2023-04-30T16:08:39.329Z,19.42
2023-04-30T16:11:12.112Z,10.35
2023-04-30T16:13:44.345Z,9.02
2023-04-30T16:16:15.363Z,11.63
2023-04-30T16:18:46.628Z,12.70
2023-04-30T16:21:20.649Z,14.57
2023-04-30T16:23:57.014Z,12.02
2023-04-30T16:26:27.962Z,19.92
2023-04-30T16:28:59.008Z,11.02
2023-04-30T16:31:29.995Z,11.52
2023-04-30T16:34:03.647Z,15.80
2023-04-30T16:36:37.077Z,11.05
2023-04-30T16:39:08.140Z,10.80
2023-04-30T16:41:39.242Z,11.02
2023-04-30T16:44:11.572Z,9.95
2023-04-30T16:46:42.493Z,11.48
2023-04-30T16:49:13.470Z,7.93
2023-04-30T16:51:46.966Z,7.50
2023-04-30T16:54:17.867Z,8.20
2023-04-30T16:56:48.835Z,7.63
2023-04-30T16:59:19.678Z,12.80
2023-04-30T17:01:50.636Z,9.85
2023-04-30T17:04:21.544Z,9.68
2023-04-30T17:06:55.428Z,10.60
2023-04-30T17:09:26.373Z,8.23
2023-04-30T17:11:57.216Z,10.60
2023-04-30T17:14:28.884Z,8.10
2023-04-30T17:16:59.763Z,9.55
2023-04-30T17:19:30.617Z,7.80
2023-04-30T17:22:04.614Z,8.93
2023-04-30T17:24:35.446Z,8.27
2023-04-30T17:27:06.245Z,8.70
2023-04-30T17:29:37.196Z,8.15
2023-04-30T17:32:09.300Z,6.13
2023-04-30T17:34:40.865Z,6.70
2023-04-30T17:37:14.318Z,7.57
2023-04-30T17:39:45.065Z,8.45
2023-04-30T17:42:16.669Z,6.85
2023-04-30T17:44:49.137Z,6.57
2023-04-30T17:47:20.098Z,7.07
2023-04-30T17:49:50.998Z,6.43
2023-04-30T17:52:24.558Z,5.45
2023-04-30T17:54:57.164Z,7.40
2023-04-30T17:57:28.068Z,6.78
2023-04-30T17:59:59.223Z,8.63
2023-04-30T18:02:30.468Z,4.90
2023-04-30T18:05:01.335Z,7.35
2023-04-30T18:07:34.823Z,7.45
2023-04-30T18:10:05.754Z,6.18
2023-04-30T18:12:36.725Z,8.95
2023-04-30T18:15:08.827Z,7.43
2023-04-30T18:17:40.123Z,6.63
2023-04-30T18:20:12.706Z,5.80
2023-04-30T18:22:46.850Z,7.78
2023-04-30T18:25:19.579Z,8.52
2023-04-30T18:27:50.421Z,7.65
2023-04-30T18:30:21.378Z,8.55
2023-04-30T18:32:52.279Z,9.32
2023-04-30T18:35:24.239Z,5.25
2023-04-30T18:37:58.453Z,6.80
2023-04-30T18:40:29.489Z,9.10
2023-04-30T18:43:00.371Z,8.32
2023-04-30T18:45:31.322Z,7.20
2023-04-30T18:48:02.372Z,7.38
2023-04-30T18:50:33.350Z,7.80
2023-04-30T18:53:07.355Z,7.40
2023-04-30T18:55:38.498Z,8.73
2023-04-30T18:58:09.913Z,9.85
2023-04-30T19:00:42.912Z,10.52
2023-04-30T19:03:14.133Z,8.55
2023-04-30T19:05:45.437Z,10.15
2023-04-30T19:08:18.832Z,8.77
2023-04-30T19:10:53.579Z,8.63
2023-04-30T19:13:24.431Z,9.68
2023-04-30T19:15:56.292Z,8.25
2023-04-30T19:18:27.143Z,9.45
2023-04-30T19:21:00.576Z,9.60
2023-04-30T19:23:35.573Z,9.02
2023-04-30T19:26:06.451Z,9.77
2023-04-30T19:28:37.454Z,8.32
2023-04-30T19:31:09.076Z,10.57
2023-04-30T19:33:41.387Z,8.77
2023-04-30T19:36:13.106Z,8.68
2023-04-30T19:38:46.925Z,9.10
2023-04-30T19:41:17.842Z,10.07
2023-04-30T19:43:48.645Z,10.75
2023-04-30T19:46:19.578Z,10.52
2023-04-30T19:48:50.817Z,9.43
2023-04-30T19:51:22.054Z,10.63
2023-04-30T19:53:55.682Z,11.85
2023-04-30T19:56:26.773Z,12.40
2023-04-30T19:58:57.991Z,11.63
2023-04-30T20:01:28.942Z,11.07
2023-04-30T20:03:59.944Z,12.73
2023-04-30T20:06:31.801Z,13.55
2023-04-30T20:09:05.914Z,12.25
2023-04-30T20:11:36.780Z,11.13
2023-04-30T20:14:08.629Z,10.02
2023-04-30T20:16:39.569Z,12.02
2023-04-30T20:19:11.021Z,11.68
2023-04-30T20:21:42.203Z,13.27
2023-04-30T20:24:15.699Z,12.02
2023-04-30T20:26:46.807Z,12.85
2023-04-30T20:29:18.904Z,12.38
2023-04-30T20:31:49.965Z,12.82
2023-04-30T20:34:20.898Z,13.55
2023-04-30T20:36:53.039Z,12.88
2023-04-30T20:39:27.085Z,14.27
2023-04-30T20:41:59.346Z,14.10
2023-04-30T20:44:30.254Z,15.18
2023-04-30T20:47:01.486Z,13.45
2023-04-30T20:49:32.646Z,8.70
2023-04-30T20:55:22.540Z,13.45
2023-04-30T20:57:53.575Z,14.90
2023-04-30T21:00:24.625Z,14.23
2023-04-30T21:02:55.674Z,15.38
2023-04-30T21:05:27.368Z,14.23
2023-04-30T21:08:01.707Z,14.25
2023-04-30T21:10:36.840Z,14.68
2023-04-30T21:13:09.794Z,13.48
2023-04-30T21:15:43.477Z,14.93
2023-04-30T21:18:14.361Z,14.18
2023-04-30T21:20:45.353Z,13.00
2023-04-30T21:23:16.363Z,19.45
2023-04-30T21:25:49.871Z,16.52
2023-04-30T21:28:20.880Z,13.63
2023-04-30T21:30:52.240Z,17.10
2023-04-30T21:33:23.369Z,14.48
2023-04-30T21:35:54.148Z,16.88
2023-04-30T21:38:24.901Z,16.25
2023-04-30T21:40:58.368Z,14.18
2023-04-30T21:43:29.604Z,16.50
2023-04-30T21:46:05.628Z,16.88
2023-04-30T21:48:38.654Z,15.80
2023-04-30T21:51:15.441Z,16.77
2023-04-30T21:53:46.642Z,16.15
2023-04-30T21:56:21.627Z,13.05
2023-04-30T21:58:52.801Z,15.85
2023-04-30T22:01:27.859Z,14.38
2023-04-30T22:03:59.107Z,13.05
2023-04-30T22:06:30.076Z,16.10
2023-04-30T22:09:00.971Z,15.15
2023-04-30T22:11:34.494Z,12.82
2023-04-30T22:14:05.361Z,16.90
2023-04-30T22:16:36.250Z,18.67
2023-04-30T22:19:07.534Z,19.58
2023-04-30T22:21:38.481Z,16.35
2023-04-30T22:24:09.802Z,18.95
2023-04-30T22:26:43.249Z,14.65
2023-04-30T22:29:14.308Z,16.55
2023-04-30T22:31:45.255Z,16.00
2023-04-30T22:34:19.682Z,14.20
2023-04-30T22:36:50.494Z,12.35
2023-04-30T22:39:21.523Z,10.63
2023-04-30T22:41:56.204Z,14.60
2023-04-30T22:44:27.229Z,8.60
2023-04-30T22:46:59.447Z,12.57
2023-04-30T22:49:32.364Z,11.43
2023-04-30T22:52:04.574Z,9.63
2023-04-30T22:54:35.543Z,10.30
2023-04-30T22:57:09.053Z,8.43
2023-04-30T22:59:40.587Z,10.07
2023-04-30T23:02:11.769Z,11.48
2023-04-30T23:04:42.693Z,9.35
2023-04-30T23:07:13.893Z,9.55
2023-04-30T23:09:45.534Z,11.90
2023-04-30T23:12:19.137Z,8.82
2023-04-30T23:14:50.498Z,10.88
2023-04-30T23:17:21.413Z,9.57
2023-04-30T23:19:53.059Z,11.73
2023-04-30T23:22:24.025Z,12.88
2023-04-30T23:24:57.493Z,12.25
2023-04-30T23:27:31.172Z,12.63
2023-04-30T23:30:02.076Z,12.77
2023-04-30T23:32:33.621Z,10.80
2023-04-30T23:35:04.534Z,9.25
2023-04-30T23:37:35.429Z,11.45
2023-04-30T23:40:07.824Z,8.25
2023-04-30T23:42:41.301Z,9.35
2023-04-30T23:45:13.325Z,9.82
2023-04-30T23:47:44.273Z,9.43
2023-04-30T23:50:15.513Z,9.70
2023-04-30T23:52:46.470Z,9.52
2023-04-30T23:55:19.010Z,10.93
2023-04-30T23:57:52.553Z,8.60
